Etusivu
METAR-TAF:

METAR-TAF

Lentoasemat :

Cranfield, Englanti

Leveyspiiri: 52-04N, Pituuspiiri: 000-37W, korkeus merenpinnasta: 111 m

Tämänhetkinen sää

Tämä raportti tehtiin 38 minuuttia sitten, kello 07.20 UTC
Tuuli 10 kn luoteesta, vaihdellen lännen ja pohjoisen välillä
Lämpötila 6°C
Kosteus 81%
Ilmanpaine 1030 hPa
Näkyvyys 10 km tai enemmän
ei pilviä alle 1500 m:ssä eikä cumulonimbus-pilviä

METAR: EGTC 250720Z 32010KT 280V350 CAVOK 06/03 Q1030

Aika: 07:58 (07:58 UTC)


TAF: puuttuu

Säähavainnot ja -ennusteet yli 4000 lentoasemalta (METAR- ja TAF-raportit).

Käytössä olevat sääasemat on merkitty karttaan keltaisilla ja punaisilla pisteillä.

Aseta hiiri pisteen päälle nähdäksesi sääaseman nimen.

Klikkaa sitten nähdäksesi säähavainnot ja -ennusteet.

Kartan vaihtaminen: klikkaa mustalla rastilla varustettuja vihreitä pisteitä, niin voit zoomata sisään; viivalla varustettua vihreää pistettä, niin voit zoomata ulos tai vihreitä nuolia, niin pääset viereisille kartoille.


METAR-TAF: